aviador You're here:

KBIX Decoded Metar

BILOXI in MS, USA
Report Time2017-05-30 00:58:00
UTC Time2017-05-30 01:33:04
Flight Rules vfr VFR
Wind200° at 04 kt
W.Decomp.*RWY 21: 3.9 kt HW 0.8 kt LCW
W.Rank200° ranks 10
Current wind is below 200° avg. (8.0)
Visibility9999 m
Phenomena:N/A
Clouds:Scattered 140 Hf
Expected CloudBase > 2,000 ft AGL from Temp-Dew spread
CeilingNone
Temp27°C (ISA +12)
Dew Point22°C (74% RH)
Heat Index29.2°C
QNH1017 hPa
Density Alt1,637 ft
Elevation33 ft
Report Wrong Elevation
Raw Report
KBIX 300058Z AUTO 20004KT 10SM SCT140 27/22 A3003 RMK AO2 LTG DSNT
W SLP172 T02680215=

Extra information for KBIX:More info

Metar Taf Metar & Taf Last 4 Metars F.Rules Stats Wind Profile Meteogram Temp Stats Airport Information Weather charts Add Link Nearby VenuesMetar ALERT Operation Metar Decoded Social comments

AIRNAV info for KBIX